Kayl, Luxembourg
Current Conditions -  °F | °C
As of 1:20 PM on Friday 24 Oct 2014 (Local Time) from ELLX Reporting Station
Few Clouds Few Clouds  
Wind Chill: 52°   Ceiling: Unl
Heat Index: 52°   Visibility: 6mi
Dew Point: 43°   Wind: 7mph
Humidity: 71%   Direction: 170°S
Pressure: 30.15"   Gusts: NA
Location:  49.49°N, 6.04°E
Report Text: ELLX 241120Z 17006KT 110V240 9999 FEW023 11/06 Q1021 NOSIG
Loading
Personal Weather Stations






























Interactive Weather Map
Tropical Storm Tracking
New forecast layout! Learn more

10-Day Weather Forecast

Advertisements
Track Severe Weather on mobile